createdAt,value
2019-04-29T00:00:02.752Z,58.62
2019-04-29T00:05:02.690Z,58.61
2019-04-29T00:10:03.132Z,58.61
2019-04-29T00:15:02.541Z,58.7
2019-04-29T00:20:02.993Z,58.69
2019-04-29T00:25:02.420Z,58.68
2019-04-29T00:30:02.858Z,58.68
2019-04-29T00:35:03.299Z,58.75
2019-04-29T00:40:02.723Z,58.81
2019-04-29T00:45:03.162Z,58.82
2019-04-29T00:50:02.578Z,58.87
2019-04-29T00:55:03.024Z,58.97
2019-04-29T01:00:02.442Z,58.97
2019-04-29T01:05:02.885Z,59.02
2019-04-29T01:10:03.431Z,58.98
2019-04-29T01:15:02.831Z,59.0
2019-04-29T01:20:03.294Z,59.04
2019-04-29T01:25:02.809Z,59.0
2019-04-29T01:30:03.297Z,59.05
2019-04-29T01:35:02.695Z,59.05
2019-04-29T01:40:03.104Z,59.11
2019-04-29T01:45:02.545Z,59.14
2019-04-29T01:50:02.993Z,59.17
2019-04-29T01:55:02.494Z,59.16
2019-04-29T02:00:02.948Z,59.18
2019-04-29T02:05:03.395Z,59.18
2019-04-29T02:10:02.807Z,59.18
2019-04-29T02:15:03.268Z,59.22
2019-04-29T02:20:02.776Z,59.21
2019-04-29T02:25:03.224Z,59.28
2019-04-29T02:30:02.651Z,59.36
2019-04-29T02:35:03.124Z,59.43
2019-04-29T02:40:02.604Z,59.46
2019-04-29T02:45:03.051Z,59.53
2019-04-29T02:50:02.469Z,59.64
2019-04-29T02:55:02.949Z,59.6
2019-04-29T03:00:03.777Z,59.63
2019-04-29T03:05:03.234Z,59.68
2019-04-29T03:10:02.749Z,59.74
2019-04-29T03:15:03.199Z,59.71
2019-04-29T03:20:02.618Z,59.66
2019-04-29T03:25:03.161Z,59.69
2019-04-29T03:30:02.584Z,59.72
2019-04-29T03:35:03.124Z,59.75
2019-04-29T03:40:02.794Z,59.71
2019-04-29T03:45:03.299Z,59.76
2019-04-29T03:50:02.710Z,59.79
2019-04-29T03:55:03.253Z,59.85
2019-04-29T04:00:02.650Z,59.98
2019-04-29T04:05:03.176Z,60.01
2019-04-29T04:10:02.655Z,60.04
2019-04-29T04:15:03.219Z,60.11
2019-04-29T04:20:02.717Z,60.12
2019-04-29T04:25:03.175Z,60.18
2019-04-29T04:30:03.329Z,60.18
2019-04-29T04:35:02.807Z,60.27
2019-04-29T04:40:03.248Z,60.43
2019-04-29T04:45:02.662Z,60.51
2019-04-29T04:50:02.261Z,60.52
2019-04-29T04:55:02.752Z,60.54
2019-04-29T05:00:03.184Z,60.54
2019-04-29T05:05:02.609Z,60.56
2019-04-29T05:10:03.044Z,60.58
2019-04-29T05:15:02.496Z,60.85
2019-04-29T05:20:03.112Z,60.99
2019-04-29T05:25:02.541Z,61.17
2019-04-29T05:30:02.975Z,61.21
2019-04-29T05:35:02.392Z,61.49
2019-04-29T05:40:02.835Z,61.61
2019-04-29T05:45:03.294Z,61.79
2019-04-29T05:50:01.990Z,61.9
2019-04-29T05:55:03.065Z,62.09
2019-04-29T06:00:02.554Z,62.3
2019-04-29T06:05:02.996Z,62.49
2019-04-29T06:10:02.419Z,62.77
2019-04-29T06:15:02.867Z,63.09
2019-04-29T06:20:03.309Z,63.04
2019-04-29T06:25:02.722Z,62.98
2019-04-29T06:30:04.816Z,63.08
2019-04-29T06:35:02.378Z,63.59
2019-04-29T06:40:02.817Z,63.67
2019-04-29T06:45:03.267Z,63.8
2019-04-29T06:50:02.662Z,63.77
2019-04-29T06:55:03.127Z,63.84
2019-04-29T07:00:02.535Z,63.83
2019-04-29T07:05:03.014Z,63.76
2019-04-29T07:10:02.516Z,63.64
2019-04-29T07:15:02.964Z,63.58
2019-04-29T07:20:03.373Z,63.49
2019-04-29T07:25:02.896Z,63.49
2019-04-29T07:30:06.520Z,63.33
2019-04-29T07:35:05.860Z,63.36
2019-04-29T07:40:03.614Z,63.36
2019-04-29T07:45:03.093Z,63.12
2019-04-29T07:50:02.543Z,63.08
2019-04-29T07:55:03.029Z,63.13
2019-04-29T08:00:02.427Z,63.01
2019-04-29T08:05:02.930Z,63.0
2019-04-29T08:10:03.580Z,62.89
2019-04-29T08:15:07.706Z,62.88
2019-04-29T08:20:05.322Z,62.85
2019-04-29T08:25:02.741Z,62.9
2019-04-29T08:30:06.635Z,62.82
2019-04-29T08:35:03.364Z,62.75
2019-04-29T08:40:15.542Z,62.46
2019-04-29T08:45:02.253Z,62.3
2019-04-29T08:50:02.676Z,62.14
2019-04-29T08:55:02.370Z,61.76
2019-04-29T09:00:02.840Z,61.73
2019-04-29T09:05:06.776Z,61.44
2019-04-29T09:10:03.638Z,61.13
2019-04-29T09:15:03.263Z,60.05
2019-04-29T09:20:02.794Z,59.58
2019-04-29T09:25:03.279Z,58.51
2019-04-29T09:30:02.697Z,58.17
2019-04-29T09:35:03.403Z,57.28
2019-04-29T09:40:02.810Z,56.92
2019-04-29T09:45:03.312Z,56.59
2019-04-29T09:50:02.747Z,56.44
2019-04-29T09:55:04.007Z,55.87
2019-04-29T10:00:05.475Z,55.46
2019-04-29T10:05:02.515Z,54.97
2019-04-29T10:10:06.847Z,54.97
2019-04-29T10:15:03.252Z,54.18
2019-04-29T10:20:02.710Z,53.89
2019-04-29T10:25:04.584Z,53.83
2019-04-29T10:30:03.035Z,53.71
2019-04-29T10:35:03.607Z,53.17
2019-04-29T10:40:10.929Z,52.98
2019-04-29T10:45:03.154Z,52.63
2019-04-29T10:50:02.665Z,52.05
2019-04-29T10:55:03.111Z,51.46
2019-04-29T11:00:02.762Z,51.32
2019-04-29T11:05:03.173Z,51.13
2019-04-29T11:10:01.885Z,50.6
2019-04-29T11:15:03.486Z,49.96
2019-04-29T11:20:02.907Z,49.27
2019-04-29T11:25:03.614Z,46.96
2019-04-29T11:30:04.783Z,46.25
2019-04-29T11:35:03.376Z,47.38
2019-04-29T11:40:01.972Z,48.42
2019-04-29T11:45:03.635Z,47.71
2019-04-29T11:50:03.283Z,46.02
2019-04-29T11:55:02.786Z,46.29
2019-04-29T12:00:03.243Z,46.65
2019-04-29T12:05:04.281Z,48.32
2019-04-29T12:10:06.489Z,46.89
2019-04-29T12:15:03.195Z,44.37
2019-04-29T12:20:02.643Z,46.26
2019-04-29T12:25:03.188Z,46.83
2019-04-29T12:30:02.577Z,44.65
2019-04-29T12:35:03.070Z,43.8
2019-04-29T12:40:01.696Z,43.93
2019-04-29T12:45:03.176Z,41.89
2019-04-29T12:50:02.604Z,42.3
2019-04-29T12:55:19.310Z,41.69
2019-04-29T13:01:08.479Z,39.91
2019-04-29T13:05:03.059Z,41.97
2019-04-29T13:10:06.891Z,42.05
2019-04-29T13:15:03.578Z,41.66
2019-04-29T13:20:07.297Z,41.24
2019-04-29T13:25:02.982Z,40.37
2019-04-29T13:30:02.394Z,39.9
2019-04-29T13:35:05.359Z,39.17
2019-04-29T13:40:03.392Z,39.36
2019-04-29T13:45:09.392Z,39.72
2019-04-29T13:50:17.240Z,41.15
2019-04-29T13:55:16.527Z,41.68
2019-04-29T14:00:02.800Z,42.84
2019-04-29T14:05:03.254Z,41.13
2019-04-29T14:10:02.662Z,41.38
2019-04-29T14:15:03.118Z,40.88
2019-04-29T14:20:02.681Z,41.46
2019-04-29T14:25:03.193Z,41.93
2019-04-29T14:30:03.029Z,40.65
2019-04-29T14:35:02.531Z,42.52
2019-04-29T14:40:07.181Z,41.45
2019-04-29T14:45:03.245Z,41.8
2019-04-29T14:50:02.645Z,42.36
2019-04-29T14:55:03.081Z,42.53
2019-04-29T15:00:02.707Z,42.79
2019-04-29T15:05:07.370Z,43.66
2019-04-29T15:10:02.516Z,44.19
2019-04-29T15:15:03.100Z,44.22
2019-04-29T15:20:02.684Z,44.18
2019-04-29T15:25:03.203Z,44.48
2019-04-29T15:30:02.689Z,44.58
2019-04-29T15:35:03.127Z,45.1
2019-04-29T15:40:02.732Z,45.83
2019-04-29T15:45:03.202Z,46.12
2019-04-29T15:50:17.377Z,46.42
2019-04-29T15:55:02.862Z,47.06
2019-04-29T16:00:20.207Z,47.42
2019-04-29T16:05:04.640Z,47.97
2019-04-29T16:10:03.262Z,48.3
2019-04-29T16:15:02.714Z,48.85
2019-04-29T16:20:03.267Z,49.34
2019-04-29T16:30:02.920Z,50.91
2019-04-29T16:35:03.438Z,50.84
2019-04-29T16:40:02.886Z,51.11
2019-04-29T16:45:06.186Z,51.39
2019-04-29T16:50:04.656Z,51.04
2019-04-29T16:55:04.173Z,51.21
2019-04-29T17:00:06.318Z,51.2
2019-04-29T17:05:03.378Z,51.02
2019-04-29T17:10:02.849Z,50.99
2019-04-29T17:15:05.043Z,51.24
2019-04-29T17:20:02.893Z,51.15
2019-04-29T17:25:03.454Z,51.44
2019-04-29T17:30:07.421Z,51.49
2019-04-29T17:35:03.674Z,51.62
2019-04-29T17:35:19.043Z,50.53
2019-04-29T17:40:03.257Z,51.58
2019-04-29T17:45:10.599Z,51.95
2019-04-29T17:50:06.504Z,52.44
2019-04-29T17:55:02.855Z,52.77
2019-04-29T18:00:05.163Z,52.92
2019-04-29T18:05:02.911Z,53.09
2019-04-29T18:10:05.053Z,53.27
2019-04-29T18:15:02.607Z,53.85
2019-04-29T18:20:08.531Z,54.19
2019-04-29T18:25:02.789Z,54.34
2019-04-29T18:30:03.306Z,53.94
2019-04-29T18:35:02.748Z,54.65
2019-04-29T18:40:03.568Z,54.35
2019-04-29T18:45:05.002Z,54.72
2019-04-29T18:50:02.910Z,54.78
2019-04-29T18:55:03.446Z,54.82
2019-04-29T19:00:04.785Z,55.01
2019-04-29T19:05:03.106Z,55.36
2019-04-29T19:10:02.660Z,55.78
2019-04-29T19:15:04.945Z,55.67
2019-04-29T19:20:02.591Z,55.77
2019-04-29T19:25:03.025Z,56.69
2019-04-29T19:30:02.476Z,56.54
2019-04-29T19:35:02.957Z,56.45
2019-04-29T19:40:02.447Z,56.44
2019-04-29T19:45:06.269Z,56.29
2019-04-29T19:50:03.309Z,56.34
2019-04-29T19:55:03.360Z,56.36
2019-04-29T20:00:03.288Z,56.89
2019-04-29T20:05:05.126Z,56.88
2019-04-29T20:10:05.791Z,56.76
2019-04-29T20:15:03.345Z,56.76
2019-04-29T20:20:05.064Z,56.93
2019-04-29T20:25:03.267Z,56.88
2019-04-29T20:30:03.222Z,56.96
2019-04-29T20:35:06.966Z,56.97
2019-04-29T20:40:02.819Z,56.96
2019-04-29T20:45:05.210Z,57.12
2019-04-29T20:50:03.080Z,57.27
2019-04-29T20:55:02.892Z,57.43
2019-04-29T21:00:02.594Z,57.4
2019-04-29T21:05:03.360Z,57.63
2019-04-29T21:10:04.832Z,57.77
2019-04-29T21:15:09.382Z,57.8
2019-04-29T21:20:03.152Z,57.93
2019-04-29T21:25:02.598Z,58.29
2019-04-29T21:30:03.054Z,58.43
2019-04-29T21:35:02.481Z,58.44
2019-04-29T21:40:07.149Z,58.4
2019-04-29T21:45:04.687Z,58.49
2019-04-29T21:50:02.984Z,58.64
2019-04-29T21:55:02.409Z,58.8
2019-04-29T22:00:02.876Z,58.98
2019-04-29T22:05:05.114Z,59.04
2019-04-29T22:10:02.701Z,59.18
2019-04-29T22:15:03.165Z,59.19
2019-04-29T22:20:04.097Z,59.23
2019-04-29T22:25:05.930Z,59.21
2019-04-29T22:30:03.053Z,59.24
2019-04-29T22:35:02.579Z,59.29
2019-04-29T22:40:03.200Z,59.38
2019-04-29T22:45:02.873Z,59.48
2019-04-29T22:50:04.464Z,59.55
2019-04-29T22:55:02.639Z,59.45
2019-04-29T23:00:07.287Z,59.44
2019-04-29T23:05:03.068Z,59.45
2019-04-29T23:10:02.497Z,59.52
2019-04-29T23:15:02.937Z,59.68
2019-04-29T23:20:03.389Z,59.74
2019-04-29T23:25:02.889Z,59.92
2019-04-29T23:30:03.415Z,59.97
2019-04-29T23:35:06.275Z,60.31
2019-04-29T23:40:03.000Z,60.19
2019-04-29T23:45:02.420Z,60.15
2019-04-29T23:50:02.860Z,60.27
2019-04-29T23:55:03.428Z,60.45
